Lossiemouth, United Kingdom
Current Conditions -  °F | °C
As of 5:50 PM on Friday 24 Oct 2014 (Local Time) from EGQS Reporting Station
Few Clouds Few Clouds  
Wind Chill: 50°   Ceiling: Unl
Heat Index: 50°   Visibility: 6mi
Dew Point: 41°   Wind: 13mph
Humidity: 71%   Direction: 210°SSW
Pressure: 29.59"   Gusts: NA
Location:  57.72°N, 3.28°W
Report Text: EGQS 241650Z 21011KT 9999 FEW040 10/05 Q1002 BLU NOSIG
Loading
Personal Weather Stations






























Interactive Weather Map
Tropical Storm Tracking
New forecast layout! Learn more

10-Day Weather Forecast

Advertisements
Track Severe Weather on mobile